Patuxent River Naval Air Station/Trapnell Field Aiport
KNHK : now visible

Airfield :











YOU CAN JOIN US ON...

 
LOGIN :

Register | Disclaimer

   EN    FR    IT 

 









Legend :    VFR   Marginal VFR   IFR   Intensive IFR   Very Intensive IFR
Visi :
Ceiling :
>= 8 km
>= 3000ft
5 to 8 km
1000 to 3000 ft
1500m to 5 km
500 to 1000 ft
800 to 1500m
200 to 500 ft
< 800m
< 200 ft
Symbols :   Thunderstorms  Fog  Heavy snow  Heavy precipitations  Wind > 20 kt







- Airport Elevation : 39 ft


KNHK - Patuxent River Naval Air Station/Trapnell Field Aiport

CURRENT METAR :
  • 191952Z 14011G17KT 9SM -RA FEW040 SCT055 BKN110 OVC280 19/18 A2969 RMK AO2 RAE07B46 SLP053 P0000 T01940183

EXPIRED METARs :
  • 191852Z 16012KT 7SM -RA SCT045 BKN090 BKN140 OVC280 19/19 A2972 RMK AO2 VIS 2 1/2 RY24 RAB04 SLP065 VIS 3 NE-E P0001 T01890189
  • 191752Z 13010KT 9SM FEW035 FEW050 BKN140 OVC280 19/18 A2974 RMK AO2 SLP072 SUN VSBL THRU CLDS T01890178 10233 20178 58016

TAF TAF KNHK
Valid from the 19 at 15:00 until the 20 at 15:00 UTC


1915/2015 16014G22KT 9999 VCSH BKN020 OVC080 QNH2971INS
BECMG 1917/1919 14012G20KT 9999 VCTS SCT020CB OVC060 QNH2955INS
TEMPO 1917/1923 VRB15G30KT 6000 -TSRA BR BKN020CB OVC040
BECMG 1922/2000 14018G28KT 6000 SHRA VCTS BKN010CB OVC025 QNH2954INS
TEMPO 1923/2005 VRB30G45KT 1600 TSRA BKN005CB OVC015
FM200500 13018G25KT 4800 -SHRA VCTS SCT005CB BKN015 OVC030 QNH2957INS
FM201000 15014G20KT 9999 BKN020 OVC070 QNH2960INS T24/1921Z T16/2009Z FN20002
KZDC FIR / North America



MET'MAP, your aeronautical weather chart ! - Copyright ORBIFLY December 2007 - Disclaimer

ORBIFLY MET'MAP TEAM :

Programming & Development : Alexandra Zaïnal
Concept & Development : Baudouin d'Aumeries
Co-Development & Prog : Marc-Olivier Méhu
Technical & hardware support : Manuel Goepfert

Contact : metmap@orbifly.com




SOURCES & CREDITS :

   NOAA       Earth
Advisory